Surface/Precipitation History
01/25/2015 20:24  to  1/26/2015 20:24
Change End Date:
Date/Time
(MST)
Sf
Temp Chem Water Layer Surface Precipitation
Sf Sub Frz Factor Pct Depth IcePct Cond Salin Type Intens Accum Rate
01/26/2015 19:55 Ice Warning 29.3F 30F 32F 25 0% - 100% 0 mhos 0 None None - -
01/26/2015 19:54 Ice Warning 29.1F 30F 32F 20 0% - 100% 0 mhos 0 None None - -
01/26/2015 19:44 Ice Warning 28.6F 30F 32F 20 0% - 100% 0 mhos 0 None None - -
01/26/2015 19:34 Ice Warning 28.2F 30F 32F 20 0% - 100% 0 mhos 0 None None - -
01/26/2015 19:25 Ice Warning 28.8F 30F 32F 20 0% - 100% 0 mhos 0 None None - -
01/26/2015 19:24 Ice Warning 28.8F 30F 32F 25 0% - 100% 0 mhos 0 None None - -
01/26/2015 19:14 Ice Warning 29.5F 30F 32F 25 0% - 100% 0 mhos 0 None None - -
01/26/2015 19:10 Ice Warning 29.8F 30F 32F 25 0% - 100% 0 mhos 0 None None - -
01/26/2015 19:04 Ice Warning 29.7F 30F 32F 25 0% - 100% 0 mhos 0 None None - -
01/26/2015 18:55 Ice Warning 29.5F 30F 32F 25 0% - 100% 0 mhos 0 None None - -
01/26/2015 18:54 Ice Warning 29.5F 30F 32F 25 0% - 100% 0 mhos 0 None None - -
01/26/2015 18:44 Ice Warning 30.2F 30F 32F 25 0% - 100% 0 mhos 0 None None - -
01/26/2015 18:34 Ice Warning 30.2F 30F 32F 45 0% - 100% 0 mhos 0 None None - -
01/26/2015 18:25 Ice Warning 30.2F 30F 32F 45 0% - 100% 0 mhos 0 None None - -
01/26/2015 18:24 Ice Warning 30.2F 30F 32F 45 0% - 100% 0 mhos 0 None None - -
Date/Time
(MST)
Sf
Temp Chem Water Layer Surface Precipitation
Sf Sub Frz Factor Pct Depth IcePct Cond Salin Type Intens Accum Rate
01/26/2015 18:14 Ice Warning 30.4F 30F 32F 45 0% - 100% 0 mhos 0 None None - -
01/26/2015 18:10 Ice Warning 30.6F 30F 32F 45 0% - 100% 0 mhos 0 None None - -
01/26/2015 18:04 Ice Warning 30.7F 30F 32F 50 0% - 100% 0 mhos 0 None None - -
01/26/2015 17:55 Ice Warning 31.1F 30F 32F 50 0% - 100% 0 mhos 0 None None - -
01/26/2015 17:54 Ice Warning 31.1F 30F 32F 50 0% - 100% 0 mhos 0 None None - -
01/26/2015 17:43 Ice Warning 31.5F 30F 32F 50 0% - 100% 0 mhos 0 None None - -
01/26/2015 17:40 Ice Warning 31.6F 30F 32F 50 0% - 100% 0 mhos 0 None None - -
01/26/2015 17:33 Wet 32.2F 30F 32F 50 0% 0.00 in 0% 0 mhos 0 None None - -
01/26/2015 17:25 Wet 32.5F 30F 32F 50 0% 0.00 in 0% 0 mhos 0 None None - -
01/26/2015 17:23 Wet 32.9F 30F 32F 50 0% 0.00 in 0% 0 mhos 0 None None - -
01/26/2015 17:13 Wet 33.6F 29F 32F 45 0% 0.00 in 0% 0 mhos 0 None None - -
01/26/2015 17:10 Wet 33.8F 29F 32F 45 0% 0.00 in 0% 0 mhos 0 None None - -
01/26/2015 17:03 Wet 34.3F 29F 32F 40 0% 0.00 in 0% 0 mhos 0 None None - -
01/26/2015 16:55 Wet 35.1F 29F 32F 35 0% 0.00 in 0% 0 mhos 0 None None - -
01/26/2015 16:53 Wet 35.2F 29F 32F 50 0% 0.00 in 0% 0 mhos 0 None None - -
Date/Time
(MST)
Sf
Temp Chem Water Layer Surface Precipitation
Sf Sub Frz Factor Pct Depth IcePct Cond Salin Type Intens Accum Rate
01/26/2015 16:43 Wet 36.9F 29F 32F 70 0% 0.20 in 0% 0 mhos 0 None None - -
01/26/2015 16:40 Wet 37.2F 29F 32F 65 0% 0.40 in 0% 0 mhos 0 None None - -
01/26/2015 16:33 Wet 38.1F 29F 32F 60 0% 0.60 in 0% 0 mhos 0 None None - -
01/26/2015 16:25 Wet 38.8F 29F 32F 60 0% 0.70 in 0% 0 mhos 0 None None - -
01/26/2015 16:23 Wet 39.0F 29F 32F 55 0% 0.70 in 0% 0 mhos 0 None None - -
01/26/2015 16:13 Wet 39.9F 29F 32F 45 0% 0.60 in 0% 0 mhos 0 None None - -
01/26/2015 16:10 Wet 40.3F 29F 32F 40 0% 0.50 in 0% 0 mhos 0 None None - -
01/26/2015 16:03 Wet 41.0F 29F 32F 35 0% 0.40 in 0% 0 mhos 0 None None - -
01/26/2015 15:55 Wet 41.5F 29F 32F 25 0% 0.30 in 0% 0 mhos 0 None None - -
01/26/2015 15:53 Wet 41.9F 29F 32F 20 0% 0.30 in 0% 0 mhos 0 None None - -
01/26/2015 15:43 Wet 42.4F 29F 32F 15 0% 0.30 in 0% 0 mhos 0 None None - -
01/26/2015 15:33 Wet 43.5F 29F 32F 15 0% 0.20 in 0% 0 mhos 0 None None - -
01/26/2015 15:26 Wet 43.9F 29F 32F 15 0% 0.30 in 0% 0 mhos 0 None None - -
01/26/2015 15:23 Wet 44.1F 29F 32F 15 0% 0.20 in 0% 0 mhos 0 None None - -
01/26/2015 15:13 Wet 44.4F 29F 32F 10 0% 0.20 in 0% 0 mhos 0 None None - -
Date/Time
(MST)
Sf
Temp Chem Water Layer Surface Precipitation
Sf Sub Frz Factor Pct Depth IcePct Cond Salin Type Intens Accum Rate
01/26/2015 15:03 Wet 45.0F 29F 32F 5 0% 0.20 in 0% 0 mhos 0 None None - -
01/26/2015 14:55 Wet 45.5F 29F 32F 5 0% 0.20 in 0% 0 mhos 0 None None - -
01/26/2015 14:53 Wet 45.5F 29F 32F 5 0% 0.20 in 0% 0 mhos 0 None None - -
01/26/2015 14:43 Wet 46.0F 29F 32F 5 0% 0.20 in 0% 0 mhos 0 None None - -
01/26/2015 14:40 Wet 46.2F 29F 32F 5 0% 0.20 in 0% 0 mhos 0 None None - -
01/26/2015 14:33 Wet 46.4F 29F 32F 5 0% 0.20 in 0% 0 mhos 0 None None - -
01/26/2015 14:25 Wet 46.8F 29F 32F 5 0% 0.20 in 0% 0 mhos 0 None None - -
01/26/2015 14:23 Wet 46.8F 29F 32F 5 0% 0.20 in 0% 0 mhos 0 None None - -
01/26/2015 14:13 Wet 47.1F 29F 32F 5 0% 0.20 in 0% 0 mhos 0 None None - -
01/26/2015 14:10 Wet 47.3F 28F 32F 5 0% 0.20 in 0% 0 mhos 0 None None - -
01/26/2015 14:02 Wet 47.3F 28F 32F 5 0% 0.20 in 0% 0 mhos 0 None None - -
01/26/2015 13:55 Wet 47.3F 28F 32F 5 0% 0.20 in 0% 0 mhos 0 None None - -
01/26/2015 13:52 Wet 47.5F 28F 32F 5 0% 0.20 in 0% 0 mhos 0 None None - -
01/26/2015 13:42 Wet 46.9F 28F 32F 5 0% 0.20 in 0% 0 mhos 0 None None - -
01/26/2015 13:32 Wet 46.4F 28F 32F 5 0% 0.20 in 0% 0 mhos 0 None None - -
Date/Time
(MST)
Sf
Temp Chem Water Layer Surface Precipitation
Sf Sub Frz Factor Pct Depth IcePct Cond Salin Type Intens Accum Rate
01/26/2015 13:25 Wet 46.4F 28F 32F 5 0% 0.10 in 0% 0 mhos 0 None None - -
01/26/2015 13:22 Wet 46.4F 28F 32F 5 0% 0.10 in 0% 0 mhos 0 None None - -
01/26/2015 13:12 Wet 46.2F 28F 32F 5 0% 0.10 in 0% 0 mhos 0 None None - -
01/26/2015 13:02 Wet 45.9F 28F 32F 15 0% 0.20 in 0% 0 mhos 0 None None - -
01/26/2015 12:55 Wet 46.0F 28F 32F 30 0% 0.20 in 0% 0 mhos 0 None None - -
01/26/2015 12:52 Wet 45.9F 28F 32F 30 0% 0.20 in 0% 0 mhos 0 None None - -
01/26/2015 12:42 Wet 45.0F 28F 32F 60 0% 0.30 in 0% 0 mhos 0 None None - -
01/26/2015 12:40 Wet 44.8F 28F 32F 90 0% 0.40 in 0% 0 mhos 0 None None - -
01/26/2015 12:32 Wet 43.7F 28F 32F 60 0% 0.10 in 0% 0 mhos 0 None None - -
01/26/2015 12:25 Wet 42.4F 28F 32F 85 0% 0.10 in 0% 0 mhos 0 None None - -
01/26/2015 12:22 Wet 42.4F 28F 32F 95 0% 0.10 in 0% 0 mhos 0 None None - -
01/26/2015 12:12 Wet 42.4F 28F 32F 95 0% 0.10 in 0% 0 mhos 0 None None - -
01/26/2015 12:10 Wet 42.4F 28F 32F 95 0% 0.10 in 0% 0 mhos 0 None None - -
01/26/2015 12:02 Wet 42.4F 28F 32F 95 0% 0.10 in 0% 0 mhos 0 None None - -
01/26/2015 11:55 Wet 42.1F 28F 32F 95 0% 0.20 in 0% 0 mhos 0 None None - -
Date/Time
(MST)
Sf
Temp Chem Water Layer Surface Precipitation
Sf Sub Frz Factor Pct Depth IcePct Cond Salin Type Intens Accum Rate
01/26/2015 11:52 Wet 41.7F 28F 32F 95 0% 0.10 in 0% 0 mhos 0 None None - -
01/26/2015 11:42 Wet 40.8F 28F 32F 95 0% 0.00 in 0% 1 mhos 0 None None - -
01/26/2015 11:32 Wet 39.9F 28F 32F 95 0% 0.00 in 0% 3 mhos 0 None None - -
01/26/2015 11:25 Wet 39.2F 28F 32F 95 0% 0.00 in 0% 4 mhos 0 None None - -
01/26/2015 11:22 Wet 39.2F 28F 32F 95 0% 0.00 in 0% 4 mhos 0 None None - -
01/26/2015 11:12 Wet 38.7F 28F 32F 95 0% 0.00 in 0% 5 mhos 0 None None - -
01/26/2015 11:10 Wet 38.5F 28F 32F 95 0% 0.00 in 0% 6 mhos 0 None None - -
01/26/2015 11:02 Wet 37.8F 27F 32F 95 0% 0.00 in 0% 6 mhos 0 None None - -
01/26/2015 10:55 Wet 37.0F 27F 32F 95 0% 0.00 in 0% 6 mhos 0 None None - -
01/26/2015 10:52 Wet 36.5F 27F 32F 95 0% 0.00 in 0% 6 mhos 0 None None - -
01/26/2015 10:42 Wet 35.2F 27F 32F 95 0% 0.00 in 0% 5 mhos 0 None None - -
01/26/2015 10:40 Wet 35.1F 27F 32F 95 0% 0.00 in 0% 5 mhos 0 None None - -
01/26/2015 10:32 Wet 34.3F 27F 32F 95 0% 0.00 in 0% 4 mhos 0 None None - -
01/26/2015 10:25 Wet 33.8F 27F 32F 95 0% 0.00 in 0% 5 mhos 0 None None - -
01/26/2015 10:21 Wet 33.4F 27F 32F 95 0% 0.00 in 0% 5 mhos 0 None None - -
Date/Time
(MST)
Sf
Temp Chem Water Layer Surface Precipitation
Sf Sub Frz Factor Pct Depth IcePct Cond Salin Type Intens Accum Rate
01/26/2015 10:11 Wet 32.5F 27F 32F 95 0% 0.00 in 0% 5 mhos 0 None None - -
01/26/2015 10:10 Wet 32.4F 27F 32F 95 0% 0.00 in 0% 6 mhos 0 None None - -
01/26/2015 10:01 Ice Warning 31.8F 27F 32F 95 0% - 100% 5 mhos 0 None None - -
01/26/2015 09:55 Ice Warning 31.5F 27F 32F 95 0% - 100% 4 mhos 0 None None - -
01/26/2015 09:51 Ice Warning 31.3F 27F 32F 95 0% - 100% 5 mhos 0 None None - -
01/26/2015 09:41 Ice Warning 30.6F 27F 32F 60 0% - 100% 1 mhos 0 None None - -
01/26/2015 09:40 Ice Warning 30.6F 27F 32F 60 0% - 100% 1 mhos 0 None None - -
01/26/2015 09:31 Ice Warning 30.0F 27F 32F 60 0% - 100% 0 mhos 0 None None - -
01/26/2015 09:25 Ice Warning 29.3F 27F 32F 75 0% - 100% 0 mhos 0 None None - -
01/26/2015 09:21 Ice Warning 28.8F 27F 32F 90 0% - 100% 0 mhos 0 None None - -
01/26/2015 09:11 Ice Warning 28.0F 27F 32F 75 0% - 100% 0 mhos 0 None None - -
01/26/2015 09:10 Ice Warning 28.0F 27F 32F 75 0% - 100% 0 mhos 0 None None - -
01/26/2015 09:01 Ice Warning 28.0F 27F 32F 75 0% - 100% 0 mhos 0 None None - -
01/26/2015 08:55 Ice Warning 27.7F 27F 32F 75 0% - 100% 0 mhos 0 None None - -
01/26/2015 08:51 Ice Warning 28.0F 27F 32F 75 0% - 100% 0 mhos 0 None None - -
Date/Time
(MST)
Sf
Temp Chem Water Layer Surface Precipitation
Sf Sub Frz Factor Pct Depth IcePct Cond Salin Type Intens Accum Rate
01/26/2015 08:41 Ice Warning 27.3F 27F 32F 70 0% - 100% 0 mhos 0 None None - -
01/26/2015 08:40 Ice Warning 27.5F 27F 32F 70 0% - 100% 0 mhos 0 None None - -
01/26/2015 08:31 Ice Warning 27.9F 27F 32F 75 0% - 100% 0 mhos 0 None None - -
01/26/2015 08:25 Ice Warning 27.7F 27F 32F 75 0% - 100% 0 mhos 0 None None - -
01/26/2015 08:21 Ice Warning 27.7F 27F 32F 75 0% - 100% 0 mhos 0 None None - -
01/26/2015 08:11 Ice Warning 27.7F 27F 32F 75 0% - 100% 0 mhos 0 None None - -
01/26/2015 08:10 Ice Warning 27.7F 27F 32F 70 0% - 100% 0 mhos 0 None None - -
01/26/2015 08:01 Ice Warning 27.9F 27F 32F 75 0% - 100% 0 mhos 0 None None - -
01/26/2015 07:55 Ice Warning 27.7F 27F 32F 75 0% - 100% 0 mhos 0 None None - -
01/26/2015 07:51 Ice Warning 27.7F 27F 32F 75 0% - 100% 0 mhos 0 None None - -
01/26/2015 07:41 Ice Warning 27.7F 27F 32F 75 0% - 100% 0 mhos 0 None None - -
01/26/2015 07:40 Ice Warning 27.7F 27F 32F 75 0% - 100% 0 mhos 0 None None - -
01/26/2015 07:31 Ice Warning 27.7F 27F 32F 75 0% - 100% 0 mhos 0 None None - -
01/26/2015 07:25 Ice Warning 27.7F 27F 32F 75 0% - 100% 0 mhos 0 None None - -
01/26/2015 07:21 Ice Warning 27.7F 27F 32F 75 0% - 100% 0 mhos 0 None None - -
Date/Time
(MST)
Sf
Temp Chem Water Layer Surface Precipitation
Sf Sub Frz Factor Pct Depth IcePct Cond Salin Type Intens Accum Rate
01/26/2015 07:11 Ice Warning 27.9F 27F 32F 75 0% - 100% 0 mhos 0 None None - -
01/26/2015 07:00 Ice Warning 27.9F 27F 32F 75 0% - 100% 0 mhos 0 None None - -
01/26/2015 06:56 Ice Warning 27.9F 27F 32F 75 0% - 100% 0 mhos 0 None None - -
01/26/2015 06:50 Ice Warning 27.7F 27F 32F 75 0% - 100% 0 mhos 0 None None - -
01/26/2015 06:40 Ice Warning 27.7F 27F 32F 75 0% - 100% 0 mhos 0 None None - -
01/26/2015 06:30 Ice Warning 27.9F 27F 32F 75 0% - 100% 0 mhos 0 None None - -
01/26/2015 06:25 Ice Warning 27.9F 27F 32F 75 0% - 100% 0 mhos 0 None None - -
01/26/2015 06:20 Ice Warning 27.9F 27F 32F 75 0% - 100% 0 mhos 0 None None - -
01/26/2015 06:10 Ice Warning 28.0F 27F 32F 75 0% - 100% 0 mhos 0 None None - -
01/26/2015 06:00 Ice Warning 27.9F 27F 32F 80 0% - 100% 0 mhos 0 None None - -
01/26/2015 05:55 Ice Warning 27.9F 27F 32F 80 0% - 100% 0 mhos 0 None None - -
01/26/2015 05:50 Ice Warning 27.7F 27F 32F 80 0% - 100% 0 mhos 0 None None - -
01/26/2015 05:40 Ice Warning 27.9F 27F 32F 80 0% - 100% 0 mhos 0 None None - -
01/26/2015 05:30 Ice Warning 27.7F 27F 32F 80 0% - 100% 0 mhos 0 None None - -
01/26/2015 05:25 Ice Warning 27.7F 27F 32F 80 0% - 100% 0 mhos 0 None None - -
Date/Time
(MST)
Sf
Temp Chem Water Layer Surface Precipitation
Sf Sub Frz Factor Pct Depth IcePct Cond Salin Type Intens Accum Rate
01/26/2015 05:20 Ice Warning 27.7F 27F 32F 80 0% - 100% 0 mhos 0 None None - -
01/26/2015 05:10 Ice Warning 27.7F 27F 32F 80 0% - 100% 0 mhos 0 None None - -
01/26/2015 05:00 Ice Warning 27.5F 27F 32F 80 0% - 100% 0 mhos 0 None None - -
01/26/2015 04:55 Ice Warning 27.5F 27F 32F 80 0% - 100% 0 mhos 0 None None - -
01/26/2015 04:50 Ice Warning 27.3F 27F 32F 80 0% - 100% 0 mhos 0 None None - -
01/26/2015 04:40 Ice Warning 27.3F 27F 32F 80 0% - 100% 0 mhos 0 None None - -
01/26/2015 04:30 Ice Warning 27.5F 27F 32F 80 0% - 100% 0 mhos 0 None None - -
01/26/2015 04:26 Ice Warning 27.7F 27F 32F 85 0% - 100% 0 mhos 0 None None - -
01/26/2015 04:20 Ice Warning 27.5F 27F 32F 85 0% - 100% 0 mhos 0 None None - -
01/26/2015 04:10 Ice Warning 27.7F 27F 32F 85 0% - 100% 0 mhos 0 None None - -
01/26/2015 04:00 Ice Warning 27.5F 27F 32F 80 0% - 100% 0 mhos 0 None None - -
01/26/2015 03:55 Ice Warning 27.5F 27F 32F 80 0% - 100% 0 mhos 0 None None - -
01/26/2015 03:50 Ice Warning 27.7F 27F 32F 85 0% - 100% 0 mhos 0 None None - -
01/26/2015 03:40 Ice Warning 27.9F 27F 32F 85 0% - 100% 0 mhos 0 None None - -
01/26/2015 03:29 Ice Warning 27.9F 27F 32F 85 0% - 100% 0 mhos 0 None None - -
Date/Time
(MST)
Sf
Temp Chem Water Layer Surface Precipitation
Sf Sub Frz Factor Pct Depth IcePct Cond Salin Type Intens Accum Rate
01/26/2015 03:25 Ice Warning 28.0F 27F 32F 85 0% - 100% 0 mhos 0 None None - -
01/26/2015 03:19 Ice Warning 28.0F 27F 32F 85 0% - 100% 0 mhos 0 None None - -
01/26/2015 03:09 Ice Warning 27.9F 27F 32F 85 0% - 100% 0 mhos 0 None None - -
01/26/2015 02:59 Ice Warning 27.7F 27F 32F 85 0% - 100% 0 mhos 0 None None - -
01/26/2015 02:55 Ice Warning 28.0F 27F 32F 85 0% - 100% 0 mhos 0 None None - -
01/26/2015 02:49 Ice Warning 28.2F 27F 32F 90 0% - 100% 0 mhos 0 None None - -
01/26/2015 02:39 Ice Warning 28.2F 27F 32F 90 0% - 100% 0 mhos 0 None None - -
01/26/2015 02:29 Ice Warning 28.2F 27F 32F 90 0% - 100% 0 mhos 0 None None - -
01/26/2015 02:26 Ice Warning 28.2F 27F 32F 90 0% - 100% 0 mhos 0 None None - -
01/26/2015 02:19 Ice Warning 28.2F 27F 32F 90 0% - 100% 0 mhos 0 None None - -
01/26/2015 02:09 Ice Warning 28.2F 27F 32F 90 0% - 100% 0 mhos 0 None None - -
01/26/2015 01:59 Ice Warning 28.2F 27F 32F 90 0% - 100% 0 mhos 0 None None - -
01/26/2015 01:55 Ice Warning 28.2F 27F 32F 90 0% - 100% 0 mhos 0 None None - -
01/26/2015 01:49 Ice Warning 28.2F 27F 32F 90 0% - 100% 0 mhos 0 None None - -
01/26/2015 01:39 Ice Warning 28.4F 27F 32F 90 0% - 100% 0 mhos 0 None None - -
Date/Time
(MST)
Sf
Temp Chem Water Layer Surface Precipitation
Sf Sub Frz Factor Pct Depth IcePct Cond Salin Type Intens Accum Rate
01/26/2015 01:29 Ice Warning 28.4F 27F 32F 90 0% - 100% 0 mhos 0 None None - -
01/26/2015 01:25 Ice Warning 28.4F 27F 32F 90 0% - 100% 0 mhos 0 None None - -
01/26/2015 01:19 Ice Warning 28.4F 27F 32F 90 0% - 100% 0 mhos 0 None None - -
01/26/2015 01:09 Ice Warning 28.2F 27F 32F 90 0% - 100% 0 mhos 0 None None - -
01/26/2015 00:59 Ice Warning 28.0F 27F 32F 90 0% - 100% 0 mhos 0 None None - -
01/26/2015 00:55 Ice Warning 28.0F 27F 32F 90 0% - 100% 0 mhos 0 None None - -
01/26/2015 00:49 Ice Warning 28.4F 27F 32F 90 0% - 100% 0 mhos 0 None None - -
01/26/2015 00:39 Ice Warning 28.4F 27F 32F 90 0% - 100% 0 mhos 0 None None - -
01/26/2015 00:29 Ice Warning 28.2F 27F 32F 90 0% - 100% 0 mhos 0 None None - -
01/26/2015 00:25 Ice Warning 28.0F 27F 32F 90 0% - 100% 0 mhos 0 None None - -
01/26/2015 00:19 Ice Warning 28.0F 27F 32F 90 0% - 100% 0 mhos 0 None None - -
01/26/2015 00:10 Ice Warning 28.0F 27F 32F 90 0% - 100% 0 mhos 0 None None - -
01/26/2015 00:09 Ice Warning 28.0F 27F 32F 90 0% - 100% 0 mhos 0 None None - -
01/25/2015 23:59 Ice Warning 28.0F 27F 32F 90 0% - 100% 0 mhos 0 None None - -
01/25/2015 23:57 Ice Warning 28.0F 27F 32F 85 0% - 100% 0 mhos 0 None None - -
Date/Time
(MST)
Sf
Temp Chem Water Layer Surface Precipitation
Sf Sub Frz Factor Pct Depth IcePct Cond Salin Type Intens Accum Rate
01/25/2015 23:49 Ice Warning 28.0F 27F 32F 90 0% - 100% 0 mhos 0 None None - -
01/25/2015 23:39 Ice Warning 28.2F 27F 32F 90 0% - 100% 0 mhos 0 None None - -
01/25/2015 23:28 Ice Warning 28.4F 27F 32F 90 0% - 100% 0 mhos 0 None None - -
01/25/2015 23:25 Ice Warning 28.4F 27F 32F 90 0% - 100% 0 mhos 0 None None - -
01/25/2015 23:18 Ice Warning 28.6F 27F 32F 90 0% - 100% 0 mhos 0 None None - -
01/25/2015 23:08 Ice Warning 28.6F 27F 32F 90 0% - 100% 0 mhos 0 None None - -
01/25/2015 22:58 Ice Warning 28.6F 27F 32F 90 0% - 100% 0 mhos 0 None None - -
01/25/2015 22:55 Ice Warning 28.6F 27F 32F 90 0% - 100% 0 mhos 0 None None - -
01/25/2015 22:48 Ice Warning 28.6F 27F 32F 90 0% - 100% 0 mhos 0 None None - -
01/25/2015 22:38 Ice Warning 28.4F 27F 32F 90 0% - 100% 0 mhos 0 None None - -
01/25/2015 22:28 Ice Warning 28.4F 27F 32F 90 0% - 100% 0 mhos 0 None None - -
01/25/2015 22:25 Ice Warning 28.6F 27F 32F 90 0% - 100% 0 mhos 0 None None - -
01/25/2015 22:18 Ice Warning 28.6F 27F 32F 90 0% - 100% 0 mhos 0 None None - -
01/25/2015 22:08 Ice Warning 28.6F 27F 32F 90 0% - 100% 0 mhos 0 None None - -
01/25/2015 21:58 Ice Warning 28.6F 27F 32F 90 0% - 100% 0 mhos 0 None None - -
Date/Time
(MST)
Sf
Temp Chem Water Layer Surface Precipitation
Sf Sub Frz Factor Pct Depth IcePct Cond Salin Type Intens Accum Rate
01/25/2015 21:55 Ice Warning 28.6F 27F 32F 90 0% - 100% 0 mhos 0 None None - -
01/25/2015 21:48 Ice Warning 28.6F 27F 32F 95 0% - 100% 0 mhos 0 None None - -
01/25/2015 21:38 Ice Warning 28.4F 27F 32F 95 0% - 100% 0 mhos 0 None None - -
01/25/2015 21:28 Ice Warning 28.4F 27F 32F 95 0% - 100% 0 mhos 0 None None - -
01/25/2015 21:25 Ice Warning 28.4F 27F 32F 95 0% - 100% 0 mhos 0 None None - -
01/25/2015 21:18 Ice Warning 28.4F 27F 32F 95 0% - 100% 0 mhos 0 None None - -
01/25/2015 21:08 Ice Warning 28.2F 27F 32F 95 0% - 100% 0 mhos 0 None None - -
01/25/2015 20:58 Ice Warning 28.0F 27F 32F 90 0% - 100% 0 mhos 0 None None - -
01/25/2015 20:55 Ice Warning 27.9F 27F 32F 90 0% - 100% 0 mhos 0 None None - -
01/25/2015 20:48 Ice Warning 27.9F 27F 32F 90 0% - 100% 0 mhos 0 None None - -
01/25/2015 20:38 Ice Warning 27.5F 27F 32F 90 0% - 100% 0 mhos 0 None None - -
01/25/2015 20:28 Ice Warning 27.1F 27F 32F 90 0% - 100% 0 mhos 0 None None - -
01/25/2015 20:25 Ice Warning 27.1F 27F 32F 90 0% - 100% 0 mhos 0 None None - -
Change End Date:
Copyright © 1998-2005 Surface Systems, Inc.
All Rights Reserved
Send comments about the data to:
SCAN Web ® is a registered trademark of Surface Systems, Inc.
SCAN Web Version 5.6